Hovedside
METAR-TAF:

METAR-TAF

Lufthavner :

Roman Tmetuchl internasjonale lufthavn

Koror, Babeldaob, Palau

breddegrad: 07-22N, lengdegrad: 134-32E, høyde over havet: 54 m

Gjeldene værobservasjon

Denne rapporten ble laget for 41 minutter siden, klokken 12:50 UTC
Flau vind
Temperatur 25°C
Luftfuktighet 83%
Trykk 1012 hPa
Sikt: 24.1 km
Spredte skyer i en høyde av 1600 ft
Brutte skyer i en høyde av 12000 ft
Brutte skyer i en høyde av 30000 ft

METAR: PTRO 221250Z 00000KT 15SM SCT016 BKN120 BKN300 25/22 A2988

Tid: 22:31 (13:31 UTC)

Varsel

Denne rapporten ble laget for 2 timer og 11 minutter siden, klokken 11:20 UTC
Varsel gyldig fra 22. klokken 12 UTC til 23. klokken 12 UTC
Vind 8 kt fra Nordøst
Sikt: 10 km
Spredte skyer i en høyde av 1600 ft
Brutte skyer i en høyde av 12000 ft
regnbyger i nærheten

TAF: PTRO 221120Z 2212/2312 04008KT P6SM VCSH SCT016 BKN120

Værobservasjoner og værvarsel for over 4000 flyplasser (METAR- og TAF-rapporter).

Tilgjengelige stasjoner er representert av de røde og gule prikkene på kartet.

Hold musepekeren over prikken for å se navnet på stasjonen.

Klikk så for å se værobservasjoner og -varsler.

For å forandre kartet kan du klikke på den grønne knappen med svart kryss for å zoome inn, på den grønne knappen med strek for å zoome ut, eller på de grønne pilene for å se tilstøtende kart.


METAR-TAF: